sensor_id;sensor_type;location;lat;lon;timestamp;temperature;humidity
65752;DHT22;52486;51.098;13.770;2022-08-16T00:00:11;28.30;47.40
65752;DHT22;52486;51.098;13.770;2022-08-16T00:02:38;28.30;47.40
65752;DHT22;52486;51.098;13.770;2022-08-16T00:05:04;28.30;47.50
65752;DHT22;52486;51.098;13.770;2022-08-16T00:07:30;28.30;47.40
65752;DHT22;52486;51.098;13.770;2022-08-16T00:09:56;28.20;47.40
65752;DHT22;52486;51.098;13.770;2022-08-16T00:12:22;28.30;47.50
65752;DHT22;52486;51.098;13.770;2022-08-16T00:14:47;28.20;47.40
65752;DHT22;52486;51.098;13.770;2022-08-16T00:17:13;28.30;47.40
65752;DHT22;52486;51.098;13.770;2022-08-16T00:19:38;28.30;47.40
65752;DHT22;52486;51.098;13.770;2022-08-16T00:22:04;28.30;47.50
65752;DHT22;52486;51.098;13.770;2022-08-16T00:24:30;28.30;47.50
65752;DHT22;52486;51.098;13.770;2022-08-16T00:26:55;28.30;47.40
65752;DHT22;52486;51.098;13.770;2022-08-16T00:29:21;28.20;47.40
65752;DHT22;52486;51.098;13.770;2022-08-16T00:31:48;28.20;47.40
65752;DHT22;52486;51.098;13.770;2022-08-16T00:34:13;28.20;47.40
65752;DHT22;52486;51.098;13.770;2022-08-16T00:36:39;28.20;47.40
65752;DHT22;52486;51.098;13.770;2022-08-16T00:39:05;28.20;47.40
65752;DHT22;52486;51.098;13.770;2022-08-16T00:41:30;28.20;47.50
65752;DHT22;52486;51.098;13.770;2022-08-16T00:43:57;28.20;47.50
65752;DHT22;52486;51.098;13.770;2022-08-16T00:46:26;28.20;47.50
65752;DHT22;52486;51.098;13.770;2022-08-16T00:48:54;28.20;47.40
65752;DHT22;52486;51.098;13.770;2022-08-16T00:51:20;28.20;47.40
65752;DHT22;52486;51.098;13.770;2022-08-16T00:53:46;28.20;47.50
65752;DHT22;52486;51.098;13.770;2022-08-16T00:56:14;28.20;47.50
65752;DHT22;52486;51.098;13.770;2022-08-16T00:58:41;28.20;47.50
65752;DHT22;52486;51.098;13.770;2022-08-16T01:01:08;28.20;47.50
65752;DHT22;52486;51.098;13.770;2022-08-16T01:03:35;28.20;47.40
65752;DHT22;52486;51.098;13.770;2022-08-16T01:06:02;28.20;47.50
65752;DHT22;52486;51.098;13.770;2022-08-16T01:08:27;28.10;47.40
65752;DHT22;52486;51.098;13.770;2022-08-16T01:10:53;28.20;47.50
65752;DHT22;52486;51.098;13.770;2022-08-16T01:13:29;28.10;47.40
65752;DHT22;52486;51.098;13.770;2022-08-16T01:15:57;28.10;47.40
65752;DHT22;52486;51.098;13.770;2022-08-16T01:18:24;28.20;47.50
65752;DHT22;52486;51.098;13.770;2022-08-16T01:20:52;28.20;47.50
65752;DHT22;52486;51.098;13.770;2022-08-16T01:23:22;28.10;47.40
65752;DHT22;52486;51.098;13.770;2022-08-16T01:25:49;28.20;47.50
65752;DHT22;52486;51.098;13.770;2022-08-16T01:28:17;28.20;47.50
65752;DHT22;52486;51.098;13.770;2022-08-16T01:30:44;28.10;47.40
65752;DHT22;52486;51.098;13.770;2022-08-16T01:33:10;28.10;47.40
65752;DHT22;52486;51.098;13.770;2022-08-16T01:35:38;28.10;47.40
65752;DHT22;52486;51.098;13.770;2022-08-16T01:38:16;28.10;47.50
65752;DHT22;52486;51.098;13.770;2022-08-16T01:40:42;28.10;47.40
65752;DHT22;52486;51.098;13.770;2022-08-16T01:43:07;28.10;47.50
65752;DHT22;52486;51.098;13.770;2022-08-16T01:45:33;28.10;47.50
65752;DHT22;52486;51.098;13.770;2022-08-16T01:47:59;28.10;47.50
65752;DHT22;52486;51.098;13.770;2022-08-16T01:50:25;28.10;47.40
65752;DHT22;52486;51.098;13.770;2022-08-16T01:52:50;28.10;47.50
65752;DHT22;52486;51.098;13.770;2022-08-16T01:55:16;28.10;48.20
65752;DHT22;52486;51.098;13.770;2022-08-16T01:57:42;28.10;47.50
65752;DHT22;52486;51.098;13.770;2022-08-16T02:00:08;28.10;47.50
65752;DHT22;52486;51.098;13.770;2022-08-16T02:02:36;28.10;47.50
65752;DHT22;52486;51.098;13.770;2022-08-16T02:05:01;28.10;47.50
65752;DHT22;52486;51.098;13.770;2022-08-16T02:07:27;28.00;47.40
65752;DHT22;52486;51.098;13.770;2022-08-16T02:09:52;28.10;47.50
65752;DHT22;52486;51.098;13.770;2022-08-16T02:12:18;28.00;47.40
65752;DHT22;52486;51.098;13.770;2022-08-16T02:14:44;28.00;47.40
65752;DHT22;52486;51.098;13.770;2022-08-16T02:17:10;28.10;47.50
65752;DHT22;52486;51.098;13.770;2022-08-16T02:19:37;28.00;47.40
65752;DHT22;52486;51.098;13.770;2022-08-16T02:22:03;28.00;47.40
65752;DHT22;52486;51.098;13.770;2022-08-16T02:24:28;28.10;47.50
65752;DHT22;52486;51.098;13.770;2022-08-16T02:26:54;28.00;47.40
65752;DHT22;52486;51.098;13.770;2022-08-16T02:29:20;28.00;47.40
65752;DHT22;52486;51.098;13.770;2022-08-16T02:31:46;28.00;47.40
65752;DHT22;52486;51.098;13.770;2022-08-16T02:34:13;28.00;47.40
65752;DHT22;52486;51.098;13.770;2022-08-16T02:36:40;28.00;47.40
65752;DHT22;52486;51.098;13.770;2022-08-16T02:39:06;28.00;47.40
65752;DHT22;52486;51.098;13.770;2022-08-16T02:41:32;28.00;47.40
65752;DHT22;52486;51.098;13.770;2022-08-16T02:43:58;28.00;47.40
65752;DHT22;52486;51.098;13.770;2022-08-16T02:46:24;28.00;47.40
65752;DHT22;52486;51.098;13.770;2022-08-16T02:48:50;28.00;47.40
65752;DHT22;52486;51.098;13.770;2022-08-16T02:51:16;28.00;47.30
65752;DHT22;52486;51.098;13.770;2022-08-16T02:53:42;28.00;47.40
65752;DHT22;52486;51.098;13.770;2022-08-16T02:56:08;28.00;47.40
65752;DHT22;52486;51.098;13.770;2022-08-16T02:58:35;28.00;47.40
65752;DHT22;52486;51.098;13.770;2022-08-16T03:01:01;28.00;47.30
65752;DHT22;52486;51.098;13.770;2022-08-16T03:03:26;28.00;47.30
65752;DHT22;52486;51.098;13.770;2022-08-16T03:05:53;28.00;47.40
65752;DHT22;52486;51.098;13.770;2022-08-16T03:08:19;27.90;47.30
65752;DHT22;52486;51.098;13.770;2022-08-16T03:10:44;28.00;47.30
65752;DHT22;52486;51.098;13.770;2022-08-16T03:13:10;28.00;47.30
65752;DHT22;52486;51.098;13.770;2022-08-16T03:15:36;28.00;47.40
65752;DHT22;52486;51.098;13.770;2022-08-16T03:18:02;27.90;47.30
65752;DHT22;52486;51.098;13.770;2022-08-16T03:20:28;27.90;48.00
65752;DHT22;52486;51.098;13.770;2022-08-16T03:22:53;28.00;47.30
65752;DHT22;52486;51.098;13.770;2022-08-16T03:25:19;27.90;47.30
65752;DHT22;52486;51.098;13.770;2022-08-16T03:27:44;27.90;47.30
65752;DHT22;52486;51.098;13.770;2022-08-16T03:30:12;27.90;47.30
65752;DHT22;52486;51.098;13.770;2022-08-16T03:32:38;27.90;47.30
65752;DHT22;52486;51.098;13.770;2022-08-16T03:35:04;27.90;47.30
65752;DHT22;52486;51.098;13.770;2022-08-16T03:37:29;27.90;47.30
65752;DHT22;52486;51.098;13.770;2022-08-16T03:39:55;27.90;47.30
65752;DHT22;52486;51.098;13.770;2022-08-16T03:42:21;27.90;47.30
65752;DHT22;52486;51.098;13.770;2022-08-16T03:44:47;27.90;47.30
65752;DHT22;52486;51.098;13.770;2022-08-16T03:47:12;27.90;47.30
65752;DHT22;52486;51.098;13.770;2022-08-16T03:49:38;27.90;47.30
65752;DHT22;52486;51.098;13.770;2022-08-16T03:52:03;27.90;47.30
65752;DHT22;52486;51.098;13.770;2022-08-16T03:54:29;27.90;47.30
65752;DHT22;52486;51.098;13.770;2022-08-16T03:56:55;27.90;47.30
65752;DHT22;52486;51.098;13.770;2022-08-16T03:59:20;27.90;47.20
65752;DHT22;52486;51.098;13.770;2022-08-16T04:01:46;27.90;47.20
65752;DHT22;52486;51.098;13.770;2022-08-16T04:04:11;27.80;47.10
65752;DHT22;52486;51.098;13.770;2022-08-16T04:06:37;27.90;47.20
65752;DHT22;52486;51.098;13.770;2022-08-16T04:09:02;27.90;47.30
65752;DHT22;52486;51.098;13.770;2022-08-16T04:11:28;27.90;47.30
65752;DHT22;52486;51.098;13.770;2022-08-16T04:13:53;27.80;47.10
65752;DHT22;52486;51.098;13.770;2022-08-16T04:16:19;27.90;47.30
65752;DHT22;52486;51.098;13.770;2022-08-16T04:18:44;27.90;47.30
65752;DHT22;52486;51.098;13.770;2022-08-16T04:21:11;27.80;47.10
65752;DHT22;52486;51.098;13.770;2022-08-16T04:23:37;27.80;47.10
65752;DHT22;52486;51.098;13.770;2022-08-16T04:26:04;27.80;47.10
65752;DHT22;52486;51.098;13.770;2022-08-16T04:28:30;27.80;47.10
65752;DHT22;52486;51.098;13.770;2022-08-16T04:30:55;27.80;47.10
65752;DHT22;52486;51.098;13.770;2022-08-16T04:33:21;27.90;47.20
65752;DHT22;52486;51.098;13.770;2022-08-16T04:35:46;27.80;47.10
65752;DHT22;52486;51.098;13.770;2022-08-16T04:38:12;27.80;47.10
65752;DHT22;52486;51.098;13.770;2022-08-16T04:40:37;27.80;47.10
65752;DHT22;52486;51.098;13.770;2022-08-16T04:43:03;27.80;47.10
65752;DHT22;52486;51.098;13.770;2022-08-16T04:45:29;27.80;47.10
65752;DHT22;52486;51.098;13.770;2022-08-16T04:47:54;27.80;47.10
65752;DHT22;52486;51.098;13.770;2022-08-16T04:50:21;27.80;47.10
65752;DHT22;52486;51.098;13.770;2022-08-16T04:52:47;27.80;47.10
65752;DHT22;52486;51.098;13.770;2022-08-16T04:55:19;27.80;47.10
65752;DHT22;52486;51.098;13.770;2022-08-16T04:57:46;27.80;47.10
65752;DHT22;52486;51.098;13.770;2022-08-16T05:00:13;27.80;47.10
65752;DHT22;52486;51.098;13.770;2022-08-16T05:02:40;27.80;47.10
65752;DHT22;52486;51.098;13.770;2022-08-16T05:05:06;27.80;47.10
65752;DHT22;52486;51.098;13.770;2022-08-16T05:07:32;27.80;47.10
65752;DHT22;52486;51.098;13.770;2022-08-16T05:09:57;27.80;47.10
65752;DHT22;52486;51.098;13.770;2022-08-16T05:12:23;27.80;47.10
65752;DHT22;52486;51.098;13.770;2022-08-16T05:14:48;27.80;47.10
65752;DHT22;52486;51.098;13.770;2022-08-16T05:17:14;27.80;47.10
65752;DHT22;52486;51.098;13.770;2022-08-16T05:19:39;27.70;47.00
65752;DHT22;52486;51.098;13.770;2022-08-16T05:22:05;27.80;47.10
65752;DHT22;52486;51.098;13.770;2022-08-16T05:24:30;27.80;47.10
65752;DHT22;52486;51.098;13.770;2022-08-16T05:26:56;27.80;47.10
65752;DHT22;52486;51.098;13.770;2022-08-16T05:29:21;27.80;47.10
65752;DHT22;52486;51.098;13.770;2022-08-16T05:31:47;27.80;48.20
65752;DHT22;52486;51.098;13.770;2022-08-16T05:34:12;27.70;48.60
65752;DHT22;52486;51.098;13.770;2022-08-16T05:36:38;27.70;48.30
65752;DHT22;52486;51.098;13.770;2022-08-16T05:39:05;27.60;48.20
65752;DHT22;52486;51.098;13.770;2022-08-16T05:41:32;27.60;48.60
65752;DHT22;52486;51.098;13.770;2022-08-16T05:43:57;27.60;48.60
65752;DHT22;52486;51.098;13.770;2022-08-16T05:46:24;27.60;48.80
65752;DHT22;52486;51.098;13.770;2022-08-16T05:48:50;27.50;50.00
65752;DHT22;52486;51.098;13.770;2022-08-16T05:51:15;27.40;50.60
65752;DHT22;52486;51.098;13.770;2022-08-16T05:53:41;27.30;50.90
65752;DHT22;52486;51.098;13.770;2022-08-16T05:56:07;27.20;51.20
65752;DHT22;52486;51.098;13.770;2022-08-16T05:58:32;26.90;51.50
65752;DHT22;52486;51.098;13.770;2022-08-16T06:00:58;26.60;51.90
65752;DHT22;52486;51.098;13.770;2022-08-16T06:03:23;26.50;51.90
65752;DHT22;52486;51.098;13.770;2022-08-16T06:05:49;26.30;52.80
65752;DHT22;52486;51.098;13.770;2022-08-16T06:08:14;26.30;52.40
65752;DHT22;52486;51.098;13.770;2022-08-16T06:10:40;26.20;52.80
65752;DHT22;52486;51.098;13.770;2022-08-16T06:13:05;26.20;53.20
65752;DHT22;52486;51.098;13.770;2022-08-16T06:15:31;26.20;53.00
65752;DHT22;52486;51.098;13.770;2022-08-16T06:17:56;26.30;52.80
65752;DHT22;52486;51.098;13.770;2022-08-16T06:20:24;26.40;53.00
65752;DHT22;52486;51.098;13.770;2022-08-16T06:22:53;26.20;52.20
65752;DHT22;52486;51.098;13.770;2022-08-16T06:25:22;25.90;53.20
65752;DHT22;52486;51.098;13.770;2022-08-16T06:27:50;25.80;53.30
65752;DHT22;52486;51.098;13.770;2022-08-16T06:30:16;25.80;53.20
65752;DHT22;52486;51.098;13.770;2022-08-16T06:32:41;25.80;53.20
65752;DHT22;52486;51.098;13.770;2022-08-16T06:35:07;25.80;53.50
65752;DHT22;52486;51.098;13.770;2022-08-16T06:37:34;25.90;53.30
65752;DHT22;52486;51.098;13.770;2022-08-16T06:39:59;25.90;53.00
65752;DHT22;52486;51.098;13.770;2022-08-16T06:42:25;26.00;52.80
65752;DHT22;52486;51.098;13.770;2022-08-16T06:44:50;26.10;52.50
65752;DHT22;52486;51.098;13.770;2022-08-16T06:47:16;26.20;52.40
65752;DHT22;52486;51.098;13.770;2022-08-16T06:49:41;26.20;52.20
65752;DHT22;52486;51.098;13.770;2022-08-16T06:52:07;26.30;52.20
65752;DHT22;52486;51.098;13.770;2022-08-16T06:54:33;26.40;52.10
65752;DHT22;52486;51.098;13.770;2022-08-16T06:56:59;26.40;51.90
65752;DHT22;52486;51.098;13.770;2022-08-16T06:59:25;26.50;51.80
65752;DHT22;52486;51.098;13.770;2022-08-16T07:01:50;26.50;51.60
65752;DHT22;52486;51.098;13.770;2022-08-16T07:04:16;26.50;51.30
65752;DHT22;52486;51.098;13.770;2022-08-16T07:06:41;26.60;51.30
65752;DHT22;52486;51.098;13.770;2022-08-16T07:09:07;26.60;51.30
65752;DHT22;52486;51.098;13.770;2022-08-16T07:11:34;26.60;51.10
65752;DHT22;52486;51.098;13.770;2022-08-16T07:14:00;26.60;50.90
65752;DHT22;52486;51.098;13.770;2022-08-16T07:16:25;26.60;50.80
65752;DHT22;52486;51.098;13.770;2022-08-16T07:18:51;26.60;50.60
65752;DHT22;52486;51.098;13.770;2022-08-16T07:21:17;26.70;50.50
65752;DHT22;52486;51.098;13.770;2022-08-16T07:23:43;26.70;50.40
65752;DHT22;52486;51.098;13.770;2022-08-16T07:26:13;26.70;50.40
65752;DHT22;52486;51.098;13.770;2022-08-16T07:28:39;26.60;50.20
65752;DHT22;52486;51.098;13.770;2022-08-16T07:31:04;26.50;50.20
65752;DHT22;52486;51.098;13.770;2022-08-16T07:33:31;26.40;50.40
65752;DHT22;52486;51.098;13.770;2022-08-16T07:35:59;26.50;50.60
65752;DHT22;52486;51.098;13.770;2022-08-16T07:38:25;26.50;50.80
65752;DHT22;52486;51.098;13.770;2022-08-16T07:40:55;26.50;50.40
65752;DHT22;52486;51.098;13.770;2022-08-16T07:43:21;26.40;50.40
65752;DHT22;52486;51.098;13.770;2022-08-16T07:45:46;26.30;50.40
65752;DHT22;52486;51.098;13.770;2022-08-16T07:48:12;26.30;50.50
65752;DHT22;52486;51.098;13.770;2022-08-16T07:50:38;26.20;50.20
65752;DHT22;52486;51.098;13.770;2022-08-16T07:53:04;26.20;50.60
65752;DHT22;52486;51.098;13.770;2022-08-16T07:55:30;26.20;51.10
65752;DHT22;52486;51.098;13.770;2022-08-16T07:57:55;26.20;51.10
65752;DHT22;52486;51.098;13.770;2022-08-16T08:00:21;26.30;51.40
65752;DHT22;52486;51.098;13.770;2022-08-16T08:02:47;26.30;51.50
65752;DHT22;52486;51.098;13.770;2022-08-16T08:05:13;26.30;51.40
65752;DHT22;52486;51.098;13.770;2022-08-16T08:07:39;26.40;51.20
65752;DHT22;52486;51.098;13.770;2022-08-16T08:10:05;26.40;50.80
65752;DHT22;52486;51.098;13.770;2022-08-16T08:12:31;26.50;50.80
65752;DHT22;52486;51.098;13.770;2022-08-16T08:14:56;26.50;50.60
65752;DHT22;52486;51.098;13.770;2022-08-16T08:17:22;26.60;50.60
65752;DHT22;52486;51.098;13.770;2022-08-16T08:19:48;26.60;49.70
65752;DHT22;52486;51.098;13.770;2022-08-16T08:22:13;26.60;49.60
65752;DHT22;52486;51.098;13.770;2022-08-16T08:24:39;26.60;49.30
65752;DHT22;52486;51.098;13.770;2022-08-16T08:27:05;26.60;49.30
65752;DHT22;52486;51.098;13.770;2022-08-16T08:29:33;26.70;49.50
65752;DHT22;52486;51.098;13.770;2022-08-16T08:31:58;26.70;49.40
65752;DHT22;52486;51.098;13.770;2022-08-16T08:34:25;26.80;49.30
65752;DHT22;52486;51.098;13.770;2022-08-16T08:36:51;26.90;48.80
65752;DHT22;52486;51.098;13.770;2022-08-16T08:39:17;26.90;48.10
65752;DHT22;52486;51.098;13.770;2022-08-16T08:41:43;26.90;47.90
65752;DHT22;52486;51.098;13.770;2022-08-16T08:44:09;27.00;48.20
65752;DHT22;52486;51.098;13.770;2022-08-16T08:46:34;27.00;47.30
65752;DHT22;52486;51.098;13.770;2022-08-16T08:49:00;27.00;47.00
65752;DHT22;52486;51.098;13.770;2022-08-16T08:51:26;27.00;47.10
65752;DHT22;52486;51.098;13.770;2022-08-16T08:53:52;27.10;46.90
65752;DHT22;52486;51.098;13.770;2022-08-16T08:56:17;27.10;47.00
65752;DHT22;52486;51.098;13.770;2022-08-16T08:58:43;27.20;47.70
65752;DHT22;52486;51.098;13.770;2022-08-16T09:01:09;27.30;47.10
65752;DHT22;52486;51.098;13.770;2022-08-16T09:03:35;27.30;47.10
65752;DHT22;52486;51.098;13.770;2022-08-16T09:06:01;27.40;47.20
65752;DHT22;52486;51.098;13.770;2022-08-16T09:08:27;27.50;48.90
65752;DHT22;52486;51.098;13.770;2022-08-16T09:10:53;27.50;48.70
65752;DHT22;52486;51.098;13.770;2022-08-16T09:13:20;27.60;47.70
65752;DHT22;52486;51.098;13.770;2022-08-16T09:15:46;27.60;48.20
65752;DHT22;52486;51.098;13.770;2022-08-16T09:18:13;27.70;48.50
65752;DHT22;52486;51.098;13.770;2022-08-16T09:20:42;27.80;48.60
65752;DHT22;52486;51.098;13.770;2022-08-16T09:23:08;27.90;48.70
65752;DHT22;52486;51.098;13.770;2022-08-16T09:25:33;27.90;47.80
65752;DHT22;52486;51.098;13.770;2022-08-16T09:27:59;28.00;47.60
65752;DHT22;52486;51.098;13.770;2022-08-16T09:30:25;28.10;48.30
65752;DHT22;52486;51.098;13.770;2022-08-16T09:32:51;28.20;48.20
65752;DHT22;52486;51.098;13.770;2022-08-16T09:35:20;28.30;47.90
65752;DHT22;52486;51.098;13.770;2022-08-16T09:37:45;28.40;47.80
65752;DHT22;52486;51.098;13.770;2022-08-16T09:40:11;28.40;47.10
65752;DHT22;52486;51.098;13.770;2022-08-16T09:42:36;28.50;46.10
65752;DHT22;52486;51.098;13.770;2022-08-16T09:45:03;28.60;46.10
65752;DHT22;52486;51.098;13.770;2022-08-16T09:47:28;28.60;45.90
65752;DHT22;52486;51.098;13.770;2022-08-16T09:49:54;28.70;45.80
65752;DHT22;52486;51.098;13.770;2022-08-16T09:52:19;28.80;45.80
65752;DHT22;52486;51.098;13.770;2022-08-16T09:54:45;28.80;45.20
65752;DHT22;52486;51.098;13.770;2022-08-16T09:57:11;28.90;45.30
65752;DHT22;52486;51.098;13.770;2022-08-16T09:59:37;29.00;45.20
65752;DHT22;52486;51.098;13.770;2022-08-16T10:02:03;29.00;45.00
65752;DHT22;52486;51.098;13.770;2022-08-16T10:04:28;29.10;44.60
65752;DHT22;52486;51.098;13.770;2022-08-16T10:06:54;29.20;44.70
65752;DHT22;52486;51.098;13.770;2022-08-16T10:09:20;29.20;44.20
65752;DHT22;52486;51.098;13.770;2022-08-16T10:11:47;29.30;44.20
65752;DHT22;52486;51.098;13.770;2022-08-16T10:14:31;29.40;44.00
65752;DHT22;52486;51.098;13.770;2022-08-16T10:16:57;29.40;43.60
65752;DHT22;52486;51.098;13.770;2022-08-16T10:19:23;29.50;43.40
65752;DHT22;52486;51.098;13.770;2022-08-16T10:21:49;29.50;43.40
65752;DHT22;52486;51.098;13.770;2022-08-16T10:24:14;29.60;43.20
65752;DHT22;52486;51.098;13.770;2022-08-16T10:26:41;29.70;43.00
65752;DHT22;52486;51.098;13.770;2022-08-16T10:29:06;29.70;43.00
65752;DHT22;52486;51.098;13.770;2022-08-16T10:31:33;29.80;43.40
65752;DHT22;52486;51.098;13.770;2022-08-16T10:33:58;29.80;42.70
65752;DHT22;52486;51.098;13.770;2022-08-16T10:36:26;30.00;43.70
65752;DHT22;52486;51.098;13.770;2022-08-16T10:38:52;30.00;42.80
65752;DHT22;52486;51.098;13.770;2022-08-16T10:41:17;30.10;43.70
65752;DHT22;52486;51.098;13.770;2022-08-16T10:43:43;30.10;43.80
65752;DHT22;52486;51.098;13.770;2022-08-16T10:46:10;30.20;43.30
65752;DHT22;52486;51.098;13.770;2022-08-16T10:48:37;30.30;43.30
65752;DHT22;52486;51.098;13.770;2022-08-16T10:51:03;30.40;42.90
65752;DHT22;52486;51.098;13.770;2022-08-16T10:53:29;30.40;42.70
65752;DHT22;52486;51.098;13.770;2022-08-16T10:55:56;30.40;43.00
65752;DHT22;52486;51.098;13.770;2022-08-16T10:58:24;30.40;43.30
65752;DHT22;52486;51.098;13.770;2022-08-16T11:00:49;30.50;42.70
65752;DHT22;52486;51.098;13.770;2022-08-16T11:03:15;30.50;41.30
65752;DHT22;52486;51.098;13.770;2022-08-16T11:05:40;30.60;41.30
65752;DHT22;52486;51.098;13.770;2022-08-16T11:08:07;30.60;42.60
65752;DHT22;52486;51.098;13.770;2022-08-16T11:10:37;30.70;41.50
65752;DHT22;52486;51.098;13.770;2022-08-16T11:13:04;30.80;41.20
65752;DHT22;52486;51.098;13.770;2022-08-16T11:15:31;30.80;40.80
65752;DHT22;52486;51.098;13.770;2022-08-16T11:17:58;30.90;40.60
65752;DHT22;52486;51.098;13.770;2022-08-16T11:20:24;30.90;40.40
65752;DHT22;52486;51.098;13.770;2022-08-16T11:22:50;31.00;40.30
65752;DHT22;52486;51.098;13.770;2022-08-16T11:25:16;31.00;40.20
65752;DHT22;52486;51.098;13.770;2022-08-16T11:27:42;31.10;39.60
65752;DHT22;52486;51.098;13.770;2022-08-16T11:30:08;31.10;39.00
65752;DHT22;52486;51.098;13.770;2022-08-16T11:32:34;31.00;39.40
65752;DHT22;52486;51.098;13.770;2022-08-16T11:35:01;31.00;39.30
65752;DHT22;52486;51.098;13.770;2022-08-16T11:37:26;31.10;37.90
65752;DHT22;52486;51.098;13.770;2022-08-16T11:39:52;31.20;39.10
65752;DHT22;52486;51.098;13.770;2022-08-16T11:42:17;31.30;39.10
65752;DHT22;52486;51.098;13.770;2022-08-16T11:44:46;31.40;40.00
65752;DHT22;52486;51.098;13.770;2022-08-16T11:47:12;31.50;40.20
65752;DHT22;52486;51.098;13.770;2022-08-16T11:49:38;31.60;40.10
65752;DHT22;52486;51.098;13.770;2022-08-16T11:52:03;31.60;40.30
65752;DHT22;52486;51.098;13.770;2022-08-16T11:54:29;31.70;40.00
65752;DHT22;52486;51.098;13.770;2022-08-16T11:56:55;31.80;40.00
65752;DHT22;52486;51.098;13.770;2022-08-16T11:59:20;31.90;40.60
65752;DHT22;52486;51.098;13.770;2022-08-16T12:01:47;31.90;39.60
65752;DHT22;52486;51.098;13.770;2022-08-16T12:04:12;31.90;38.40
65752;DHT22;52486;51.098;13.770;2022-08-16T12:06:38;31.70;39.00
65752;DHT22;52486;51.098;13.770;2022-08-16T12:09:04;31.60;38.60
65752;DHT22;52486;51.098;13.770;2022-08-16T12:11:30;31.50;38.80
65752;DHT22;52486;51.098;13.770;2022-08-16T12:13:56;31.50;38.50
65752;DHT22;52486;51.098;13.770;2022-08-16T12:16:21;31.40;41.80
65752;DHT22;52486;51.098;13.770;2022-08-16T12:18:47;31.50;38.50
65752;DHT22;52486;51.098;13.770;2022-08-16T12:21:15;31.60;42.30
65752;DHT22;52486;51.098;13.770;2022-08-16T12:23:41;31.70;38.20
65752;DHT22;52486;51.098;13.770;2022-08-16T12:26:06;31.80;36.50
65752;DHT22;52486;51.098;13.770;2022-08-16T12:28:32;31.90;36.20
65752;DHT22;52486;51.098;13.770;2022-08-16T12:30:58;31.90;37.10
65752;DHT22;52486;51.098;13.770;2022-08-16T12:33:24;31.80;37.40
65752;DHT22;52486;51.098;13.770;2022-08-16T12:35:50;31.80;36.40
65752;DHT22;52486;51.098;13.770;2022-08-16T12:38:16;31.80;39.10
65752;DHT22;52486;51.098;13.770;2022-08-16T12:40:42;31.80;37.90
65752;DHT22;52486;51.098;13.770;2022-08-16T12:43:10;31.80;37.20
65752;DHT22;52486;51.098;13.770;2022-08-16T12:45:45;31.90;37.30
65752;DHT22;52486;51.098;13.770;2022-08-16T12:48:11;31.90;37.60
65752;DHT22;52486;51.098;13.770;2022-08-16T12:50:56;32.00;36.50
65752;DHT22;52486;51.098;13.770;2022-08-16T12:53:21;31.80;35.80
65752;DHT22;52486;51.098;13.770;2022-08-16T12:55:48;31.50;35.70
65752;DHT22;52486;51.098;13.770;2022-08-16T12:58:13;31.30;36.10
65752;DHT22;52486;51.098;13.770;2022-08-16T13:00:41;31.10;36.30
65752;DHT22;52486;51.098;13.770;2022-08-16T13:03:09;31.10;36.20
65752;DHT22;52486;51.098;13.770;2022-08-16T13:05:35;31.00;36.10
65752;DHT22;52486;51.098;13.770;2022-08-16T13:08:06;30.80;36.10
65752;DHT22;52486;51.098;13.770;2022-08-16T13:10:31;30.60;36.00
65752;DHT22;52486;51.098;13.770;2022-08-16T13:12:57;30.40;36.20
65752;DHT22;52486;51.098;13.770;2022-08-16T13:15:26;30.30;36.30
65752;DHT22;52486;51.098;13.770;2022-08-16T13:17:52;30.20;36.50
65752;DHT22;52486;51.098;13.770;2022-08-16T13:20:19;30.10;37.30
65752;DHT22;52486;51.098;13.770;2022-08-16T13:22:47;30.10;37.60
65752;DHT22;52486;51.098;13.770;2022-08-16T13:25:13;30.10;37.90
65752;DHT22;52486;51.098;13.770;2022-08-16T13:27:40;30.10;38.50
65752;DHT22;52486;51.098;13.770;2022-08-16T13:30:06;30.10;38.50
65752;DHT22;52486;51.098;13.770;2022-08-16T13:32:32;30.10;38.70
65752;DHT22;52486;51.098;13.770;2022-08-16T13:34:57;30.20;38.70
65752;DHT22;52486;51.098;13.770;2022-08-16T13:37:23;30.20;38.40
65752;DHT22;52486;51.098;13.770;2022-08-16T13:39:48;30.30;38.40
65752;DHT22;52486;51.098;13.770;2022-08-16T13:42:14;30.20;38.30
65752;DHT22;52486;51.098;13.770;2022-08-16T13:44:39;30.20;37.80
65752;DHT22;52486;51.098;13.770;2022-08-16T13:47:06;30.20;37.70
65752;DHT22;52486;51.098;13.770;2022-08-16T13:49:32;30.10;37.90
65752;DHT22;52486;51.098;13.770;2022-08-16T13:51:57;30.00;37.70
65752;DHT22;52486;51.098;13.770;2022-08-16T13:54:23;29.80;37.60
65752;DHT22;52486;51.098;13.770;2022-08-16T13:56:48;29.60;38.60
65752;DHT22;52486;51.098;13.770;2022-08-16T13:59:14;29.50;38.40
65752;DHT22;52486;51.098;13.770;2022-08-16T14:01:41;29.40;38.10
65752;DHT22;52486;51.098;13.770;2022-08-16T14:04:08;29.20;38.20
65752;DHT22;52486;51.098;13.770;2022-08-16T14:06:33;29.10;38.20
65752;DHT22;52486;51.098;13.770;2022-08-16T14:08:59;29.00;38.50
65752;DHT22;52486;51.098;13.770;2022-08-16T14:11:25;28.90;38.20
65752;DHT22;52486;51.098;13.770;2022-08-16T14:13:50;28.90;38.80
65752;DHT22;52486;51.098;13.770;2022-08-16T14:16:16;28.70;39.30
65752;DHT22;52486;51.098;13.770;2022-08-16T14:18:41;28.60;39.20
65752;DHT22;52486;51.098;13.770;2022-08-16T14:21:07;28.50;39.10
65752;DHT22;52486;51.098;13.770;2022-08-16T14:23:33;28.50;39.60
65752;DHT22;52486;51.098;13.770;2022-08-16T14:25:58;28.30;39.70
65752;DHT22;52486;51.098;13.770;2022-08-16T14:28:25;28.20;40.60
65752;DHT22;52486;51.098;13.770;2022-08-16T14:30:52;28.20;39.70
65752;DHT22;52486;51.098;13.770;2022-08-16T14:33:18;28.10;39.60
65752;DHT22;52486;51.098;13.770;2022-08-16T14:35:44;28.00;40.80
65752;DHT22;52486;51.098;13.770;2022-08-16T14:38:09;27.90;40.70
65752;DHT22;52486;51.098;13.770;2022-08-16T14:40:35;27.80;41.10
65752;DHT22;52486;51.098;13.770;2022-08-16T14:46:06;27.80;41.50
65752;DHT22;52486;51.098;13.770;2022-08-16T14:48:32;27.80;41.70
65752;DHT22;52486;51.098;13.770;2022-08-16T14:50:58;27.70;42.10
65752;DHT22;52486;51.098;13.770;2022-08-16T14:53:24;27.60;41.50
65752;DHT22;52486;51.098;13.770;2022-08-16T14:55:50;27.50;41.10
65752;DHT22;52486;51.098;13.770;2022-08-16T14:58:15;27.50;41.10
65752;DHT22;52486;51.098;13.770;2022-08-16T15:00:41;27.40;41.80
65752;DHT22;52486;51.098;13.770;2022-08-16T15:03:07;27.50;41.30
65752;DHT22;52486;51.098;13.770;2022-08-16T15:05:35;27.40;40.90
65752;DHT22;52486;51.098;13.770;2022-08-16T15:08:01;27.20;41.20
65752;DHT22;52486;51.098;13.770;2022-08-16T15:10:27;27.20;41.10